createdAt,value
2022-12-16T00:02:08.518Z,60.55
2022-12-16T00:04:37.271Z,59.58
2022-12-16T00:07:05.654Z,59.90
2022-12-16T00:09:35.201Z,58.17
2022-12-16T00:12:04.040Z,55.80
2022-12-16T00:14:32.248Z,54.25
2022-12-16T00:17:00.440Z,54.20
2022-12-16T00:19:28.983Z,54.88
2022-12-16T00:21:57.118Z,56.58
2022-12-16T00:24:25.450Z,57.17
2022-12-16T00:26:55.578Z,60.03
2022-12-16T00:29:23.925Z,57.58
2022-12-16T00:31:52.331Z,61.85
2022-12-16T00:34:23.123Z,61.10
2022-12-16T00:36:51.454Z,60.67
2022-12-16T00:39:20.522Z,60.20
2022-12-16T00:41:49.242Z,60.15
2022-12-16T00:44:18.848Z,63.47
2022-12-16T00:46:47.018Z,58.95
2022-12-16T00:49:15.939Z,62.92
2022-12-16T00:51:44.115Z,59.00
2022-12-16T00:54:12.296Z,62.05
2022-12-16T00:56:41.499Z,60.67
2022-12-16T00:59:09.645Z,60.38
2022-12-16T01:01:39.324Z,63.28
2022-12-16T01:04:07.871Z,58.17
2022-12-16T01:06:36.574Z,60.63
2022-12-16T01:09:04.838Z,59.10
2022-12-16T01:11:33.574Z,58.78
2022-12-16T01:14:02.012Z,58.38
2022-12-16T01:16:30.202Z,57.25
2022-12-16T01:19:00.118Z,58.35
2022-12-16T01:21:28.427Z,60.28
2022-12-16T01:23:56.609Z,55.97
2022-12-16T01:26:25.471Z,56.40
2022-12-16T01:28:53.726Z,55.38
2022-12-16T01:31:24.412Z,57.42
2022-12-16T01:33:53.199Z,59.30
2022-12-16T01:36:22.864Z,58.13
2022-12-16T01:38:51.169Z,59.13
2022-12-16T01:41:20.627Z,59.83
2022-12-16T01:43:49.434Z,56.72
2022-12-16T01:46:21.951Z,56.97
2022-12-16T01:48:53.896Z,60.30
2022-12-16T01:51:27.891Z,59.88
2022-12-16T01:54:03.439Z,59.67
2022-12-16T01:56:34.338Z,55.05
2022-12-16T01:59:04.165Z,55.58
2022-12-16T02:01:32.458Z,56.42
2022-12-16T02:04:04.161Z,55.45
2022-12-16T02:06:34.360Z,55.38
2022-12-16T02:09:06.698Z,55.88
2022-12-16T02:11:56.145Z,56.20
2022-12-16T02:14:47.734Z,56.03
2022-12-16T02:17:22.061Z,53.78
2022-12-16T02:20:22.157Z,57.55
2022-12-16T02:23:12.439Z,53.70
2022-12-16T02:25:59.007Z,55.80
2022-12-16T02:28:43.132Z,55.55
2022-12-16T02:31:22.704Z,53.65
2022-12-16T02:34:03.399Z,55.75
2022-12-16T02:36:46.453Z,53.47
2022-12-16T02:39:18.450Z,54.97
2022-12-16T02:41:52.033Z,54.83
2022-12-16T02:46:57.251Z,46.15
2022-12-16T02:49:49.923Z,48.75
2022-12-16T02:52:21.488Z,50.70
2022-12-16T02:54:53.438Z,51.10
2022-12-16T02:57:49.923Z,56.65
2022-12-16T03:00:22.110Z,54.95
2022-12-16T03:02:58.761Z,57.33
2022-12-16T03:05:31.305Z,55.03
2022-12-16T03:08:03.602Z,54.53
2022-12-16T03:10:36.695Z,53.28
2022-12-16T03:13:07.228Z,54.22
2022-12-16T03:15:37.063Z,51.92
2022-12-16T03:18:09.660Z,52.42
2022-12-16T03:20:43.547Z,53.53
2022-12-16T03:23:16.447Z,53.25
2022-12-16T03:25:46.992Z,53.00
2022-12-16T03:28:27.880Z,50.70
2022-12-16T03:31:01.795Z,48.20
2022-12-16T03:33:39.495Z,48.00
2022-12-16T03:36:13.265Z,48.95
2022-12-16T03:38:43.065Z,46.97
2022-12-16T03:41:12.167Z,47.58
2022-12-16T03:43:40.375Z,49.85
2022-12-16T03:46:10.894Z,48.15
2022-12-16T03:48:47.088Z,45.60
2022-12-16T03:51:16.282Z,37.38
2022-12-16T03:53:44.771Z,33.42
2022-12-16T03:56:13.841Z,33.10
2022-12-16T03:58:42.542Z,30.58
2022-12-16T04:01:11.607Z,29.38
2022-12-16T04:03:41.235Z,27.38
2022-12-16T04:06:10.091Z,26.92
2022-12-16T04:08:38.377Z,23.83
2022-12-16T04:11:24.718Z,22.40
2022-12-16T04:14:10.282Z,22.63
2022-12-16T04:16:56.121Z,22.52
2022-12-16T04:19:47.167Z,20.48
2022-12-16T04:22:47.501Z,21.55
2022-12-16T04:25:19.534Z,21.45
2022-12-16T04:27:47.974Z,21.95
2022-12-16T04:30:20.777Z,20.92
2022-12-16T04:33:10.689Z,21.23
2022-12-16T04:35:58.204Z,22.38
2022-12-16T04:38:46.506Z,22.35
2022-12-16T04:41:32.792Z,24.42
2022-12-16T04:44:19.098Z,27.00
2022-12-16T04:47:05.296Z,28.50
2022-12-16T04:49:50.934Z,28.90
2022-12-16T04:52:39.045Z,28.25
2022-12-16T04:55:25.823Z,28.40
2022-12-16T04:58:13.198Z,27.33
2022-12-16T05:00:59.454Z,26.00
2022-12-16T05:03:46.369Z,23.67
2022-12-16T05:06:47.191Z,23.05
2022-12-16T05:09:34.698Z,22.20
2022-12-16T05:12:20.388Z,21.15
2022-12-16T05:15:06.618Z,21.48
2022-12-16T05:17:52.332Z,23.85
2022-12-16T05:20:38.283Z,23.73
2022-12-16T05:23:23.949Z,24.98
2022-12-16T05:26:10.920Z,23.38
2022-12-16T05:28:56.676Z,22.05
2022-12-16T05:31:41.834Z,20.08
2022-12-16T05:34:27.932Z,21.38
2022-12-16T05:37:13.393Z,21.00
2022-12-16T05:39:59.171Z,20.50
2022-12-16T05:42:46.913Z,19.75
2022-12-16T05:45:32.721Z,19.73
2022-12-16T05:48:18.423Z,20.67
2022-12-16T05:51:04.237Z,22.10
2022-12-16T05:53:50.106Z,24.20
2022-12-16T05:56:35.678Z,24.63
2022-12-16T05:59:23.232Z,24.98
2022-12-16T06:02:09.078Z,20.25
2022-12-16T06:04:55.071Z,18.10
2022-12-16T06:07:40.798Z,18.50
2022-12-16T06:10:26.973Z,17.77
2022-12-16T06:13:12.628Z,17.52
2022-12-16T06:16:03.694Z,16.73
2022-12-16T06:21:38.141Z,17.48
2022-12-16T06:24:24.575Z,17.33
2022-12-16T06:27:10.320Z,16.75
2022-12-16T06:29:56.343Z,17.30
2022-12-16T06:32:43.389Z,19.73
2022-12-16T06:35:29.743Z,23.00
2022-12-16T06:38:15.833Z,21.05
2022-12-16T06:41:01.591Z,21.08
2022-12-16T06:43:47.210Z,23.83
2022-12-16T06:46:44.579Z,23.38
2022-12-16T06:49:31.799Z,23.40
2022-12-16T06:52:17.938Z,28.38
2022-12-16T06:55:04.261Z,27.98
2022-12-16T06:57:50.081Z,25.40
2022-12-16T07:00:36.242Z,27.08
2022-12-16T07:03:21.809Z,24.35
2022-12-16T07:06:13.861Z,27.10
2022-12-16T07:08:59.259Z,25.08
2022-12-16T07:11:45.870Z,26.45
2022-12-16T07:14:32.298Z,26.67
2022-12-16T07:17:18.023Z,25.67
2022-12-16T07:20:03.276Z,23.95
2022-12-16T07:23:00.887Z,23.60
2022-12-16T07:25:49.599Z,22.83
2022-12-16T07:28:35.963Z,21.58
2022-12-16T07:31:21.464Z,21.92
2022-12-16T07:34:07.733Z,22.33
2022-12-16T07:36:53.071Z,21.40
2022-12-16T07:39:40.410Z,21.65
2022-12-16T07:42:37.620Z,23.15
2022-12-16T07:45:24.309Z,25.02
2022-12-16T07:48:10.820Z,25.83
2022-12-16T07:50:57.317Z,27.10
2022-12-16T07:53:43.382Z,27.45
2022-12-16T07:56:30.655Z,32.05
2022-12-16T07:59:16.384Z,31.90
2022-12-16T08:02:02.225Z,31.48
2022-12-16T08:04:47.930Z,28.48
2022-12-16T08:07:33.679Z,29.10
2022-12-16T08:10:19.444Z,27.08
2022-12-16T08:13:06.857Z,31.52
2022-12-16T08:15:52.582Z,33.38
2022-12-16T08:18:38.976Z,29.40
2022-12-16T08:21:24.523Z,29.15
2022-12-16T08:24:10.266Z,26.02
2022-12-16T08:26:55.968Z,21.77
2022-12-16T08:29:44.717Z,18.50
2022-12-16T08:32:31.552Z,21.25
2022-12-16T08:35:17.286Z,23.00
2022-12-16T08:38:03.208Z,24.27
2022-12-16T08:40:48.765Z,23.10
2022-12-16T08:43:35.151Z,21.02
2022-12-16T08:46:22.565Z,19.73
2022-12-16T08:49:20.201Z,17.42
2022-12-16T08:52:06.020Z,21.45
2022-12-16T08:54:52.074Z,21.40
2022-12-16T08:57:49.211Z,19.80
2022-12-16T09:00:35.271Z,20.33
2022-12-16T09:03:23.639Z,18.77
2022-12-16T09:06:09.623Z,17.58
2022-12-16T09:08:55.713Z,16.75
2022-12-16T09:11:41.410Z,16.30
2022-12-16T09:14:23.603Z,20.10
2022-12-16T09:17:09.069Z,20.55
2022-12-16T09:19:56.410Z,20.02
2022-12-16T09:22:42.524Z,20.13
2022-12-16T09:25:28.424Z,19.77
2022-12-16T09:28:14.568Z,16.85
2022-12-16T09:31:00.310Z,23.08
2022-12-16T09:33:46.339Z,22.60
2022-12-16T09:36:34.169Z,17.63
2022-12-16T09:39:19.795Z,20.77
2022-12-16T09:42:16.750Z,20.73
2022-12-16T09:45:12.308Z,19.65
2022-12-16T09:48:08.270Z,17.92
2022-12-16T09:50:58.390Z,18.25
2022-12-16T09:53:47.733Z,15.38
2022-12-16T09:56:36.404Z,16.05
2022-12-16T09:59:30.036Z,15.18
2022-12-16T10:02:16.003Z,15.70
2022-12-16T10:05:11.010Z,17.58
2022-12-16T10:08:15.660Z,21.65
2022-12-16T10:11:15.781Z,16.05
2022-12-16T10:14:07.500Z,13.10
2022-12-16T10:17:01.826Z,12.77
2022-12-16T10:19:55.689Z,13.82
2022-12-16T10:22:56.147Z,13.02
2022-12-16T10:25:45.473Z,12.40
2022-12-16T10:28:36.762Z,13.27
2022-12-16T10:31:32.293Z,12.90
2022-12-16T10:34:18.110Z,13.18
2022-12-16T10:37:10.987Z,12.75
2022-12-16T10:40:03.590Z,12.50
2022-12-16T10:42:52.353Z,12.23
2022-12-16T10:45:44.263Z,12.55
2022-12-16T10:48:30.870Z,12.10
2022-12-16T10:51:19.058Z,11.70
2022-12-16T10:54:07.768Z,13.25
2022-12-16T10:57:10.008Z,14.05
2022-12-16T10:59:57.789Z,13.90
2022-12-16T11:02:46.796Z,15.77
2022-12-16T11:05:48.934Z,16.40
2022-12-16T11:08:46.702Z,14.43
2022-12-16T11:11:53.574Z,14.73
2022-12-16T11:15:05.581Z,14.65
2022-12-16T11:17:50.422Z,15.63
2022-12-16T11:20:38.556Z,16.70
2022-12-16T11:23:34.049Z,15.95
2022-12-16T11:26:25.466Z,15.60
2022-12-16T11:29:30.391Z,15.80
2022-12-16T11:32:21.703Z,14.55
2022-12-16T11:35:16.144Z,15.18
2022-12-16T11:38:03.289Z,14.50
2022-12-16T11:40:50.137Z,15.38
2022-12-16T11:43:38.466Z,14.13
2022-12-16T11:46:30.355Z,14.15
2022-12-16T11:49:24.808Z,14.05
2022-12-16T11:52:35.784Z,13.73
2022-12-16T11:56:03.587Z,13.15
2022-12-16T11:58:44.861Z,15.18
2022-12-16T12:01:40.072Z,15.07
2022-12-16T12:04:30.345Z,13.27
2022-12-16T12:07:47.897Z,13.18
2022-12-16T12:10:58.503Z,12.35
2022-12-16T12:14:09.745Z,12.82
2022-12-16T12:17:09.602Z,12.77
2022-12-16T12:20:07.199Z,12.05
2022-12-16T12:22:56.563Z,12.90
2022-12-16T12:25:50.741Z,13.98
2022-12-16T12:29:00.378Z,9.18
2022-12-16T12:31:58.077Z,8.30
2022-12-16T12:34:50.298Z,8.05
2022-12-16T12:37:43.618Z,8.32
2022-12-16T12:40:42.974Z,8.07
2022-12-16T12:43:43.651Z,8.30
2022-12-16T12:46:36.200Z,7.95
2022-12-16T12:49:29.981Z,7.65
2022-12-16T12:52:24.241Z,7.50
2022-12-16T12:58:02.011Z,6.88
2022-12-16T13:00:52.019Z,6.68
2022-12-16T13:03:49.881Z,6.50
2022-12-16T13:06:37.081Z,5.85
2022-12-16T13:09:40.997Z,5.38
2022-12-16T13:12:43.205Z,6.18
2022-12-16T13:15:38.892Z,6.45
2022-12-16T13:18:52.246Z,5.82
2022-12-16T13:22:02.701Z,5.55
2022-12-16T13:24:59.210Z,5.43
2022-12-16T13:27:46.932Z,5.57
2022-12-16T13:30:44.094Z,6.43
2022-12-16T13:33:45.846Z,5.60
2022-12-16T13:36:33.792Z,6.20
2022-12-16T13:39:38.587Z,5.85
2022-12-16T13:42:24.894Z,6.80
2022-12-16T13:45:18.389Z,6.07
2022-12-16T13:48:49.518Z,6.38
2022-12-16T13:52:17.594Z,5.80
2022-12-16T13:55:10.261Z,6.07
2022-12-16T13:57:59.408Z,6.40
2022-12-16T14:00:46.860Z,7.07
2022-12-16T14:03:38.810Z,5.70
2022-12-16T14:06:35.338Z,8.10
2022-12-16T14:09:23.085Z,6.05
2022-12-16T14:12:16.980Z,6.43
2022-12-16T14:15:10.342Z,6.25
2022-12-16T14:18:02.995Z,5.93
2022-12-16T14:20:54.719Z,5.60
2022-12-16T14:23:57.731Z,6.32
2022-12-16T14:26:45.148Z,7.77
2022-12-16T14:29:39.308Z,6.78
2022-12-16T14:32:45.558Z,6.43
2022-12-16T14:35:33.541Z,6.40
2022-12-16T14:38:43.096Z,6.03
2022-12-16T14:41:36.822Z,6.15
2022-12-16T14:44:24.735Z,6.10
2022-12-16T14:47:11.118Z,6.28
2022-12-16T14:50:09.182Z,5.97
2022-12-16T14:52:55.322Z,6.10
2022-12-16T14:55:48.206Z,5.82
2022-12-16T14:58:37.426Z,6.00
2022-12-16T15:01:32.494Z,6.05
2022-12-16T15:04:19.731Z,6.38
2022-12-16T15:07:08.698Z,6.30
2022-12-16T15:09:59.592Z,7.10
2022-12-16T15:12:59.043Z,7.63
2022-12-16T15:15:51.322Z,10.35
2022-12-16T15:18:40.565Z,8.93
2022-12-16T15:21:38.485Z,10.15
2022-12-16T15:24:28.054Z,10.23
2022-12-16T15:27:41.884Z,9.50
2022-12-16T15:30:56.854Z,9.00
2022-12-16T15:33:44.635Z,8.60
2022-12-16T15:36:42.403Z,8.65
2022-12-16T15:39:39.539Z,9.45
2022-12-16T15:42:37.536Z,11.20
2022-12-16T15:45:24.785Z,15.63
2022-12-16T15:48:11.793Z,13.23
2022-12-16T15:50:58.109Z,14.60
2022-12-16T15:53:48.556Z,15.45
2022-12-16T15:56:39.407Z,15.40
2022-12-16T15:59:41.926Z,12.70
2022-12-16T16:02:36.268Z,13.05
2022-12-16T16:05:30.227Z,12.65
2022-12-16T16:08:16.686Z,13.07
2022-12-16T16:11:03.417Z,15.90
2022-12-16T16:13:49.241Z,30.70
2022-12-16T16:16:36.059Z,31.13
2022-12-16T16:19:22.536Z,23.38
2022-12-16T16:22:09.486Z,20.33
2022-12-16T16:24:55.754Z,16.83
2022-12-16T16:27:41.671Z,15.73
2022-12-16T16:30:29.821Z,13.93
2022-12-16T16:33:15.591Z,14.48
2022-12-16T16:36:01.697Z,14.15
2022-12-16T16:38:48.826Z,18.80
2022-12-16T16:41:35.265Z,22.75
2022-12-16T16:44:20.825Z,23.52
2022-12-16T16:47:07.006Z,23.30
2022-12-16T16:49:58.837Z,20.67
2022-12-16T16:52:45.917Z,19.63
2022-12-16T16:55:36.237Z,17.88
2022-12-16T16:58:25.418Z,18.45
2022-12-16T17:01:11.438Z,17.65
2022-12-16T17:03:57.468Z,17.75
2022-12-16T17:06:43.478Z,17.85
2022-12-16T17:09:29.106Z,18.00
2022-12-16T17:12:16.684Z,16.75
2022-12-16T17:15:02.401Z,16.80
2022-12-16T17:17:48.547Z,15.25
2022-12-16T17:20:35.055Z,14.02
2022-12-16T17:23:20.838Z,15.00
2022-12-16T17:26:07.190Z,15.25
2022-12-16T17:28:54.378Z,16.40
2022-12-16T17:31:40.040Z,17.25
2022-12-16T17:34:26.036Z,18.33
2022-12-16T17:37:11.800Z,17.85
2022-12-16T17:39:57.410Z,17.08
2022-12-16T17:42:46.473Z,16.63
2022-12-16T17:45:33.880Z,14.95
2022-12-16T17:48:31.326Z,15.65
2022-12-16T17:51:16.689Z,15.88
2022-12-16T17:54:09.707Z,15.20
2022-12-16T17:57:08.382Z,16.08
2022-12-16T17:59:54.833Z,16.08
2022-12-16T18:02:42.263Z,16.60
2022-12-16T18:05:34.718Z,15.77
2022-12-16T18:08:23.952Z,15.68
2022-12-16T18:11:11.331Z,15.88
2022-12-16T18:13:53.423Z,15.35
2022-12-16T18:16:39.195Z,15.68
2022-12-16T18:19:26.479Z,14.95
2022-12-16T18:22:12.677Z,15.75
2022-12-16T18:25:03.825Z,18.17
2022-12-16T18:27:50.549Z,19.92
2022-12-16T18:30:36.146Z,21.63
2022-12-16T18:33:22.075Z,23.08
2022-12-16T18:36:08.861Z,23.38
2022-12-16T18:38:54.523Z,23.60
2022-12-16T18:41:41.194Z,22.63
2022-12-16T18:44:30.556Z,22.00
2022-12-16T18:47:16.195Z,22.48
2022-12-16T18:50:01.973Z,24.70
2022-12-16T18:52:49.233Z,22.85
2022-12-16T18:55:35.216Z,23.48
2022-12-16T18:58:49.531Z,27.40
2022-12-16T19:01:29.851Z,26.15
2022-12-16T19:04:16.125Z,21.65
2022-12-16T19:07:02.212Z,23.23
2022-12-16T19:09:49.567Z,22.33
2022-12-16T19:12:35.835Z,32.03
2022-12-16T19:15:21.250Z,26.05
2022-12-16T19:18:07.392Z,25.02
2022-12-16T19:21:01.170Z,28.38
2022-12-16T19:23:47.071Z,29.85
2022-12-16T19:26:33.860Z,25.73
2022-12-16T19:29:20.027Z,26.80
2022-12-16T19:32:05.783Z,24.50
2022-12-16T19:34:51.696Z,23.52
2022-12-16T19:37:37.592Z,21.05
2022-12-16T19:40:24.832Z,21.25
2022-12-16T19:43:12.200Z,22.00
2022-12-16T19:45:57.755Z,21.70
2022-12-16T19:48:43.217Z,22.50
2022-12-16T19:51:29.319Z,24.83
2022-12-16T19:54:14.955Z,28.20
2022-12-16T19:57:00.691Z,25.17
2022-12-16T19:59:47.945Z,21.58
2022-12-16T20:02:34.172Z,20.83
2022-12-16T20:05:19.819Z,20.17
2022-12-16T20:08:06.169Z,19.17
2022-12-16T20:10:51.896Z,19.05
2022-12-16T20:13:38.032Z,19.08
2022-12-16T20:16:27.021Z,19.55
2022-12-16T20:19:13.616Z,19.65
2022-12-16T20:22:05.801Z,20.17
2022-12-16T20:24:56.200Z,19.08
2022-12-16T20:27:42.499Z,19.33
2022-12-16T20:30:30.017Z,19.55
2022-12-16T20:33:17.343Z,21.63
2022-12-16T20:36:13.310Z,21.58
2022-12-16T20:38:59.578Z,21.75
2022-12-16T20:41:45.777Z,20.42
2022-12-16T20:44:31.757Z,19.27
2022-12-16T20:47:17.444Z,19.30
2022-12-16T20:50:04.537Z,18.48
2022-12-16T20:52:50.297Z,17.10
2022-12-16T20:55:36.111Z,16.63
2022-12-16T20:58:22.520Z,17.98
2022-12-16T21:01:10.683Z,17.45
2022-12-16T21:03:57.227Z,17.48
2022-12-16T21:06:56.135Z,18.08
2022-12-16T21:09:42.252Z,18.45
2022-12-16T21:12:28.339Z,19.13
2022-12-16T21:15:14.193Z,21.85
2022-12-16T21:18:00.076Z,22.67
2022-12-16T21:20:49.293Z,23.27
2022-12-16T21:23:36.948Z,21.67
2022-12-16T21:26:22.954Z,22.75
2022-12-16T21:29:08.935Z,24.88
2022-12-16T21:31:56.459Z,30.25
2022-12-16T21:34:42.329Z,30.50
2022-12-16T21:37:28.396Z,39.58
2022-12-16T21:40:15.233Z,27.10
2022-12-16T21:43:01.573Z,22.23
2022-12-16T21:45:47.092Z,22.58
2022-12-16T21:48:32.933Z,25.10
2022-12-16T21:51:18.634Z,27.00
2022-12-16T21:57:12.033Z,26.73
2022-12-16T21:59:57.804Z,26.02
2022-12-16T22:02:43.874Z,24.40
2022-12-16T22:05:30.122Z,22.85
2022-12-16T22:08:15.927Z,21.35
2022-12-16T22:11:01.853Z,21.55
2022-12-16T22:13:50.931Z,21.85
2022-12-16T22:16:36.995Z,22.42
2022-12-16T22:19:19.186Z,21.63
2022-12-16T22:22:06.057Z,22.63
2022-12-16T22:24:51.739Z,22.25
2022-12-16T22:27:39.734Z,22.27
2022-12-16T22:30:28.045Z,22.85
2022-12-16T22:33:16.761Z,23.20
2022-12-16T22:36:04.837Z,21.83
2022-12-16T22:36:21.965Z,24.85
2022-12-16T22:38:51.926Z,22.60
2022-12-16T22:41:37.757Z,23.98
2022-12-16T22:44:23.651Z,23.92
2022-12-16T22:47:10.726Z,24.20
2022-12-16T22:49:56.838Z,23.88
2022-12-16T22:52:42.620Z,24.50
2022-12-16T22:55:28.669Z,24.23
2022-12-16T22:58:14.412Z,22.73
2022-12-16T23:01:00.630Z,21.67
2022-12-16T23:03:44.322Z,22.67
2022-12-16T23:09:16.420Z,22.83
2022-12-16T23:12:02.080Z,23.00
2022-12-16T23:14:47.966Z,22.08
2022-12-16T23:17:34.030Z,21.67
2022-12-16T23:20:20.770Z,22.38
2022-12-16T23:23:06.834Z,21.90
2022-12-16T23:25:52.052Z,21.58
2022-12-16T23:28:38.126Z,21.27
2022-12-16T23:31:23.858Z,22.20
2022-12-16T23:34:10.115Z,21.67
2022-12-16T23:36:57.421Z,22.13
2022-12-16T23:39:54.857Z,22.88
2022-12-16T23:42:41.986Z,24.38
2022-12-16T23:45:28.776Z,24.38
2022-12-16T23:48:19.556Z,22.63
2022-12-16T23:51:06.821Z,23.88
2022-12-16T23:53:54.179Z,23.02
2022-12-16T23:56:42.801Z,22.27
2022-12-16T23:59:28.343Z,21.58
